createdAt,value
2024-04-18T00:06:26.573Z,98.86
2024-04-18T00:16:29.790Z,99.59
2024-04-18T00:26:33.748Z,100.00
2024-04-18T00:36:36.964Z,100.00
2024-04-18T00:46:40.866Z,100.00
2024-04-18T00:56:45.780Z,100.00
2024-04-18T01:06:49.376Z,100.00
2024-04-18T01:16:52.477Z,100.00
2024-04-18T01:26:55.812Z,100.00
2024-04-18T01:36:59.164Z,100.00
2024-04-18T01:47:02.336Z,100.00
2024-04-18T01:57:06.770Z,100.00
2024-04-18T02:07:10.304Z,100.00
2024-04-18T02:17:13.488Z,100.00
2024-04-18T02:27:16.887Z,100.00
2024-04-18T02:37:20.891Z,100.00
2024-04-18T02:47:26.172Z,100.00
2024-04-18T02:57:29.618Z,100.00
2024-04-18T03:07:33.013Z,100.00
2024-04-18T03:17:36.652Z,100.00
2024-04-18T03:27:40.348Z,100.00
2024-04-18T03:37:43.611Z,100.00
2024-04-18T03:47:51.713Z,100.00
2024-04-18T03:57:55.387Z,100.00
2024-04-18T04:08:00.801Z,100.00
2024-04-18T04:18:05.400Z,100.00
2024-04-18T04:28:08.620Z,100.00
2024-04-18T04:38:12.030Z,100.00
2024-04-18T04:48:17.383Z,100.00
2024-04-18T04:58:21.193Z,100.00
2024-04-18T05:08:24.599Z,100.00
2024-04-18T05:18:28.152Z,100.00
2024-04-18T05:28:41.459Z,100.00
2024-04-18T05:38:44.764Z,100.00
2024-04-18T05:48:48.529Z,100.00
2024-04-18T05:58:52.127Z,100.00
2024-04-18T06:08:56.032Z,100.00
2024-04-18T06:18:59.470Z,96.69
2024-04-18T06:29:03.234Z,94.21
2024-04-18T06:39:07.517Z,93.04
2024-04-18T06:49:10.913Z,91.01
2024-04-18T06:59:14.111Z,90.52
2024-04-18T07:09:17.472Z,93.89
2024-04-18T07:19:20.583Z,97.51
2024-04-18T07:29:23.811Z,85.00
2024-04-18T07:39:29.726Z,66.75
2024-04-18T07:49:32.934Z,53.75
2024-04-18T07:59:36.619Z,51.34
2024-04-18T08:09:44.113Z,48.26
2024-04-18T08:19:49.552Z,47.29
2024-04-18T08:29:52.698Z,40.33
2024-04-18T08:39:56.130Z,40.61
2024-04-18T08:49:59.332Z,42.39
2024-04-18T09:00:04.194Z,44.44
2024-04-18T09:10:09.969Z,46.17
2024-04-18T09:20:13.394Z,46.46
2024-04-18T09:30:17.035Z,45.72
2024-04-18T09:40:24.633Z,45.32
2024-04-18T09:50:28.710Z,46.18
2024-04-18T10:00:32.048Z,47.38
2024-04-18T10:10:36.877Z,47.63
2024-04-18T10:20:44.329Z,47.84
2024-04-18T10:30:48.068Z,47.03
2024-04-18T10:41:04.146Z,47.70
2024-04-18T10:51:08.761Z,48.01
2024-04-18T11:01:17.775Z,48.06
2024-04-18T11:11:26.734Z,46.92
2024-04-18T11:21:31.005Z,47.01
2024-04-18T11:31:34.743Z,46.94
2024-04-18T11:41:38.424Z,47.57
2024-04-18T11:51:41.613Z,48.98
2024-04-18T12:01:44.989Z,50.45
2024-04-18T12:11:48.411Z,50.95
2024-04-18T12:21:51.614Z,50.46
2024-04-18T12:31:55.208Z,49.65
2024-04-18T12:41:58.869Z,49.59
2024-04-18T12:52:02.426Z,50.80
2024-04-18T13:02:05.893Z,50.92
2024-04-18T13:12:09.666Z,51.26
2024-04-18T13:22:14.425Z,53.60
2024-04-18T13:32:17.675Z,55.18
2024-04-18T13:42:20.948Z,55.71
2024-04-18T13:52:24.333Z,55.91
2024-04-18T14:02:27.590Z,55.27
2024-04-18T14:12:31.004Z,53.81
2024-04-18T14:22:34.235Z,52.54
2024-04-18T14:32:37.767Z,51.63
2024-04-18T14:42:41.828Z,53.81
2024-04-18T14:52:51.370Z,55.38
2024-04-18T15:02:54.635Z,56.14
2024-04-18T15:12:57.923Z,56.54
2024-04-18T15:23:01.112Z,56.76
2024-04-18T15:33:05.306Z,57.79
2024-04-18T15:43:08.627Z,58.47
2024-04-18T15:53:11.901Z,58.07
2024-04-18T16:03:15.419Z,57.39
2024-04-18T16:13:18.871Z,56.30
2024-04-18T16:23:24.104Z,55.37
2024-04-18T16:33:27.720Z,55.11
2024-04-18T16:43:32.891Z,54.54
2024-04-18T16:53:37.151Z,55.58
2024-04-18T17:03:40.494Z,57.12
2024-04-18T17:13:43.789Z,58.92
2024-04-18T17:23:46.943Z,61.04
2024-04-18T17:33:50.387Z,62.59
2024-04-18T17:43:53.965Z,64.03
2024-04-18T17:53:57.333Z,65.43
2024-04-18T18:04:00.810Z,66.90
2024-04-18T18:14:03.974Z,68.14
2024-04-18T18:24:08.449Z,70.02
2024-04-18T18:34:14.943Z,71.74
2024-04-18T18:44:18.386Z,72.18
2024-04-18T18:54:21.818Z,72.53
2024-04-18T19:04:25.702Z,72.93
2024-04-18T19:14:29.055Z,73.45
2024-04-18T19:24:32.302Z,74.49
2024-04-18T19:34:37.836Z,75.14
2024-04-18T19:44:41.717Z,75.47
2024-04-18T19:54:45.274Z,75.66
2024-04-18T20:04:48.999Z,75.82
2024-04-18T20:14:54.707Z,76.06
2024-04-18T20:24:57.888Z,76.33
2024-04-18T20:35:01.673Z,77.22
2024-04-18T20:45:06.846Z,78.02
2024-04-18T20:55:10.376Z,78.44
2024-04-18T21:05:13.847Z,78.56
2024-04-18T21:15:20.424Z,78.89
2024-04-18T21:25:23.666Z,79.30
2024-04-18T21:35:27.126Z,79.25
2024-04-18T21:45:30.690Z,79.39
2024-04-18T21:55:34.176Z,80.11
2024-04-18T22:05:37.752Z,80.80
2024-04-18T22:15:41.419Z,81.46
2024-04-18T22:25:45.622Z,82.17
2024-04-18T22:35:53.868Z,82.89
2024-04-18T22:45:57.385Z,83.46
2024-04-18T22:56:01.023Z,84.30
2024-04-18T23:06:05.411Z,85.17
2024-04-18T23:16:08.701Z,85.98
2024-04-18T23:26:11.919Z,86.90
2024-04-18T23:36:15.176Z,87.63
2024-04-18T23:46:19.075Z,88.03
2024-04-18T23:56:22.549Z,88.72
